Change the Weather History Date:

Thursday, April 10, 2014

  Actual Average (KEWR) Record (KEWR)
Temperature  
Mean Temperature 53 °F 51 °F  
Max Temperature 68 °F 60 °F 82 °F (1955)
Min Temperature 38 °F 42 °F 28 °F (1997)
Degree Days  
Heating Degree Days 12 14  
Month to date heating degree days 159  
Since 1 July heating degree days 4503  
Cooling Degree Days 0 0  
Month to date cooling degree days 0  
Year to date cooling degree days 1  
Growing Degree Days 3 (Base 50)    
Moisture  
Dew Point 26 °F    
Average Humidity 35    
Maximum Humidity 59    
Minimum Humidity 23    
Precipitation  
Precipitation 0.00 in 0.15 in 2.57 in (1983)
Month to date precipitation 1.47  
Year to date precipitation 12.07  
Snow  
Snow 0.00 in 0.00 in 0.30 in (1974)
Month to date snowfall 0.5  
Since 1 July snowfall 28.1  
Snow Depth -    
Sea Level Pressure  
Sea Level Pressure 30.13 in    
Wind  
Wind Speed 5 mph (SW)    
Max Wind Speed 15 mph    
Max Gust Speed 20 mph    
Visibility 9 miles    
Events      
T = Trace of Precipitation, MM = Missing Value Source: NWS Daily Summary

Daily Weather History Graph

Daily Weather History Graph

Search for Another Location

Airport or City:

Trip Planner

Search our weather history database for the weather conditions in past years. The results will help you decide how hot, cold, wet, or windy it might be!

Date:

Astronomy

Apr. 10, 2014 Rise Set
Actual Time 6:26 AM EDT 7:31 PM EDT
Civil Twilight 5:58 AM EDT 7:59 PM EDT
Nautical Twilight 5:24 AM EDT 8:32 PM EDT
Astronomical Twilight 4:49 AM EDT 9:07 PM EDT
Moon 3:11 PM EDT (4/10) 3:48 AM EDT (4/10)
Length of Visible Light 14h 00m
Length of Day
13h 04m
Waxing Gibbous, 79% of the Moon is Illuminated
Apr 10
Waxing Gibbous
Apr 15
Full
Apr 22
Last Quarter
Apr 29
New
May 6
First Quarter

Hourly Weather History & Observations

Time (EDT) Temp. Windchill Dew Point Humidity Pressure Visibility Wind Dir Wind Speed Gust Speed Precip Events Conditions
12:15 AM 48.2 °F - 21.2 °F 34% 30.06 in 10.0 mi NNE 8.1 mph - N/A   Clear
12:35 AM 47.8 °F - 19.4 °F 32% 30.07 in 10.0 mi NNE 6.9 mph - N/A   Clear
12:55 AM 47.3 °F - 19.4 °F 33% 30.07 in 10.0 mi NE 5.8 mph - N/A   Clear
1:15 AM 46.9 °F - 18.1 °F 32% 30.08 in 10.0 mi NNE 5.8 mph - N/A   Clear
1:35 AM 46.4 °F 45.2 °F 17.6 °F 32% 30.08 in 10.0 mi North 3.5 mph - N/A   Clear
1:55 AM 45.7 °F 43.4 °F 17.2 °F 32% 30.08 in 10.0 mi North 4.6 mph - N/A   Clear
2:15 AM 45.5 °F - 17.8 °F 33% 30.09 in 10.0 mi Calm Calm - N/A   Clear
2:35 AM 43.3 °F - 17.6 °F 36% 30.10 in 10.0 mi Calm Calm - N/A   Clear
2:55 AM 42.1 °F - 18.1 °F 38% 30.11 in 10.0 mi Calm Calm - N/A   Clear
3:15 AM 42.3 °F - 18.1 °F 38% 30.11 in 10.0 mi Calm Calm - N/A   Clear
3:35 AM 42.1 °F - 21.0 °F 43% 30.11 in 10.0 mi Calm Calm - N/A   Clear
3:55 AM 41.2 °F - 21.0 °F 45% 30.12 in 10.0 mi Calm Calm - N/A   Clear
4:15 AM 40.6 °F - 22.8 °F 49% 30.12 in 10.0 mi Calm Calm - N/A   Clear
4:35 AM 40.5 °F - 23.0 °F 50% 30.13 in 10.0 mi Calm Calm - N/A   Clear
4:55 AM 39.9 °F - 23.9 °F 53% 30.14 in 10.0 mi Calm Calm - N/A   Clear
5:15 AM 38.5 °F - 23.7 °F 55% 30.14 in 10.0 mi Calm Calm - N/A   Clear
5:35 AM 39.4 °F 36.1 °F 25.0 °F 56% 30.15 in 10.0 mi West 4.6 mph - N/A   Clear
5:55 AM 38.3 °F - 24.3 °F 57% 30.16 in 10.0 mi Calm Calm - N/A   Clear
6:15 AM 38.5 °F - 24.3 °F 57% 30.16 in 10.0 mi Calm Calm - N/A   Clear
6:35 AM 39.0 °F - 24.4 °F 56% 30.18 in 10.0 mi Calm Calm - N/A   Clear
6:55 AM 38.3 °F - 25.2 °F 59% 30.20 in 10.0 mi Calm Calm - N/A   Clear
7:15 AM 39.9 °F - 24.8 °F 55% 30.20 in 10.0 mi Calm Calm - N/A   Clear
7:35 AM 40.8 °F - 26.6 °F 57% 30.21 in 10.0 mi Calm Calm - N/A   Clear
7:55 AM 43.3 °F - 26.4 °F 51% 30.22 in 10.0 mi Calm Calm - N/A   Clear
8:15 AM 45.9 °F - 24.4 °F 43% 30.22 in 10.0 mi Calm Calm - N/A   Clear
8:35 AM 48.4 °F - 23.0 °F 37% 30.22 in 10.0 mi South 5.8 mph - N/A   Clear
8:55 AM 50.0 °F - 19.8 °F 30% 30.23 in 10.0 mi SSW 5.8 mph - N/A   Clear
9:15 AM 50.9 °F - 19.2 °F 29% 30.24 in 10.0 mi South 5.8 mph - N/A   Clear
9:35 AM 52.3 °F - 19.9 °F 28% 30.24 in 10.0 mi South 6.9 mph - N/A   Clear
9:55 AM 54.1 °F - 21.0 °F 27% 30.24 in 10.0 mi SSW 4.6 mph - N/A   Clear
10:15 AM 54.5 °F - 21.7 °F 28% 30.24 in 10.0 mi SSW 4.6 mph - N/A   Clear
10:35 AM 55.6 °F - 22.5 °F 28% 30.24 in 10.0 mi WSW 5.8 mph - N/A   Clear
10:55 AM 56.8 °F - 23.7 °F 28% 30.25 in 3.0 mi SW 4.6 mph - N/A   Haze
11:15 AM 57.6 °F - 23.7 °F 27% 30.24 in 2.5 mi West 6.9 mph - N/A   Haze
11:35 AM 58.5 °F - 24.6 °F 27% 30.24 in 3.0 mi SW 5.8 mph - N/A   Haze
11:55 AM 60.1 °F - 25.7 °F 27% 30.21 in 2.5 mi SSW 6.9 mph 18.4 mph N/A   Haze
12:15 PM 62.2 °F - 27.1 °F 26% 30.20 in 3.0 mi SSW 6.9 mph - N/A   Haze
12:35 PM 61.3 °F - 26.8 °F 27% 30.19 in 3.0 mi WSW 4.6 mph - N/A   Haze
12:55 PM 62.6 °F - 28.0 °F 27% 30.18 in 2.5 mi WSW 6.9 mph - N/A   Haze
1:15 PM 63.0 °F - 29.3 °F 28% 30.17 in 3.0 mi West 8.1 mph - N/A   Haze
1:35 PM 63.7 °F - 28.6 °F 27% 30.16 in 3.0 mi West 8.1 mph - N/A   Haze
1:55 PM 64.4 °F - 28.9 °F 26% 30.15 in 2.5 mi WSW 5.8 mph - N/A   Haze
2:15 PM 64.0 °F - 29.7 °F 27% 30.14 in 4.0 mi SW 4.6 mph 9.2 mph N/A   Haze
2:35 PM 65.5 °F - 30.0 °F 26% 30.14 in 10.0 mi West 6.9 mph 16.1 mph N/A   Clear
2:55 PM 67.1 °F - 30.7 °F 26% 30.13 in 10.0 mi WSW 4.6 mph - N/A   Clear
3:15 PM 67.8 °F - 30.0 °F 24% 30.12 in 10.0 mi WSW 8.1 mph - N/A   Clear
3:35 PM 67.3 °F - 28.2 °F 23% 30.11 in 10.0 mi WSW 6.9 mph 17.3 mph N/A   Clear
3:55 PM 67.3 °F - 28.4 °F 23% 30.10 in 10.0 mi West 15.0 mph 19.6 mph N/A   Clear
4:15 PM 67.6 °F - 28.4 °F 23% 30.09 in 10.0 mi SW 8.1 mph - N/A   Clear
4:35 PM 67.6 °F - 28.9 °F 24% 30.08 in 10.0 mi WSW 6.9 mph 17.3 mph N/A   Clear
4:55 PM 68.2 °F - 29.5 °F 24% 30.07 in 10.0 mi SW 4.6 mph 9.2 mph N/A   Clear
5:15 PM 68.0 °F - 29.3 °F 24% 30.07 in 10.0 mi SW 5.8 mph - N/A   Clear
5:35 PM 67.6 °F - 29.8 °F 24% 30.07 in 10.0 mi WSW 5.8 mph - N/A   Clear
5:55 PM 67.6 °F - 30.6 °F 25% 30.06 in 10.0 mi West 5.8 mph - N/A   Clear
6:15 PM 66.7 °F - 30.2 °F 26% 30.06 in 10.0 mi West 9.2 mph 16.1 mph N/A   Clear
6:35 PM 66.4 °F - 31.3 °F 27% 30.06 in 10.0 mi SW 6.9 mph - N/A   Clear
6:55 PM 64.8 °F - 35.1 °F 33% 30.07 in 10.0 mi SW 3.5 mph 9.2 mph N/A   Clear
7:15 PM 61.7 °F - 35.6 °F 38% 30.07 in 10.0 mi South 8.1 mph - N/A   Clear
7:35 PM 61.7 °F - 34.7 °F 36% 30.07 in 10.0 mi SSW 13.8 mph - N/A   Clear
7:55 PM 60.6 °F - 34.7 °F 38% 30.07 in 10.0 mi South 10.4 mph 18.4 mph N/A   Clear
8:15 PM 59.7 °F - 34.0 °F 38% 30.08 in 10.0 mi SSW 10.4 mph - N/A   Clear
8:35 PM 59.4 °F - 32.2 °F 36% 30.08 in 10.0 mi SSW 8.1 mph - N/A   Clear
9:15 PM 57.6 °F - 32.0 °F 38% 30.09 in 10.0 mi SSW 6.9 mph - N/A   Clear
9:35 PM 57.2 °F - 31.1 °F 37% 30.08 in 10.0 mi SSW 8.1 mph - N/A   Clear
9:55 PM 56.8 °F - 30.9 °F 37% 30.07 in 10.0 mi SSW 4.6 mph - N/A   Clear
10:15 PM 56.5 °F - 30.9 °F 38% 30.07 in 10.0 mi SSW 5.8 mph - N/A   Clear
10:35 PM 56.3 °F - 31.1 °F 38% 30.06 in 10.0 mi SSW 4.6 mph - N/A   Clear
10:55 PM 56.5 °F - 31.3 °F 38% 30.07 in 10.0 mi SW 4.6 mph - N/A   Clear
11:15 PM 56.8 °F - 31.6 °F 38% 30.06 in 10.0 mi SW 4.6 mph - N/A   Clear
11:35 PM 57.2 °F - 31.5 °F 38% 30.06 in 10.0 mi SSW 3.5 mph - N/A   Scattered Clouds
11:55 PM 57.2 °F - 31.5 °F 38% 30.06 in 10.0 mi SW 3.5 mph - N/A   Clear